Time;durP1;ratioP1;P1;durP2;ratioP2;P2;SDS_P1;SDS_P2;PMS_P1;PMS_P2;Temp;Humidity;BMP_temperature;BMP_pressure;BME280_temperature;BME280_humidity;BME280_pressure;Samples;Min_cycle;Max_cycle;Signal;HPM_P1;HPM_P2
2021/05/05 00:02:25;;;;;;;1.27;0.90;;;;;;;;;;5017890;28;20041;-81
2021/05/05 00:04:51;;;;;;;1.52;0.88;;;;;;;;;;5016730;28;20044;-81
2021/05/05 00:07:17;;;;;;;1.52;1.15;;;;;;;;;;5028928;28;20033;-82
2021/05/05 00:09:43;;;;;;;1.25;0.88;;;;;;;;;;5029151;28;20025;-82
2021/05/05 00:12:09;;;;;;;4.53;1.33;;;;;;;;;;5029522;28;20402;-81
2021/05/05 00:14:34;;;;;;;0.80;0.68;;;;;;;;;;5028135;28;20057;-81
2021/05/05 00:17:01;;;;;;;4.18;1.45;;;;;;;;;;5028727;28;20060;-81
2021/05/05 00:19:27;;;;;;;1.15;1.05;;;;;;;;;;5028816;28;20039;-80
2021/05/05 00:21:53;;;;;;;0.90;0.85;;;;;;;;;;5028722;28;20552;-80
2021/05/05 00:24:19;;;;;;;1.33;1.10;;;;;;;;;;5029767;28;20025;-81
2021/05/05 00:26:45;;;;;;;1.25;1.15;;;;;;;;;;5028324;28;20024;-81
2021/05/05 00:29:11;;;;;;;3.85;0.93;;;;;;;;;;5028242;28;20651;-80
2021/05/05 00:31:37;;;;;;;1.60;1.05;;;;;;;;;;5028684;28;20057;-81
2021/05/05 00:34:03;;;;;;;1.00;0.90;;;;;;;;;;5028600;28;20659;-81
2021/05/05 00:36:29;;;;;;;1.48;1.20;;;;;;;;;;5029790;28;20027;-80
2021/05/05 00:38:56;;;;;;;1.83;1.63;;;;;;;;;;5026502;28;20514;-81
2021/05/05 00:41:22;;;;;;;3.00;1.90;;;;;;;;;;5024205;28;20029;-82
2021/05/05 00:43:48;;;;;;;1.40;1.30;;;;;;;;;;5028235;28;20083;-81
2021/05/05 00:46:14;;;;;;;1.00;0.85;;;;;;;;;;5028210;28;20108;-81
2021/05/05 00:48:40;;;;;;;2.75;1.48;;;;;;;;;;5012738;28;20439;-81
2021/05/05 00:51:06;;;;;;;2.00;1.40;;;14.40;53.50;;;;;;5016023;28;20506;-81
2021/05/05 00:53:33;;;;;;;4.80;0.93;;;14.30;54.20;;;;;;5025133;28;20095;-81
2021/05/05 00:56:00;;;;;;;1.40;1.05;;;14.20;54.10;;;;;;5026824;28;20102;-80
2021/05/05 00:58:26;;;;;;;1.50;1.15;;;;;;;;;;5027963;28;20041;-81
2021/05/05 01:00:52;;;;;;;1.25;0.90;;;;;;;;;;5028122;28;20324;-81
2021/05/05 01:03:19;;;;;;;3.63;1.15;;;;;;;;;;5029323;28;20648;-81
2021/05/05 01:05:45;;;;;;;1.20;0.85;;;;;;;;;;5028174;28;20465;-82
2021/05/05 01:08:12;;;;;;;1.33;0.75;;;;;;;;;;5023167;28;20041;-80
2021/05/05 01:10:38;;;;;;;0.82;0.80;;;;;;;;;;5016957;28;20025;-80
2021/05/05 01:13:04;;;;;;;1.52;0.90;;;;;;;;;;5012783;28;20033;-81
2021/05/05 01:15:30;;;;;;;0.95;0.88;;;;;;;;;;5029371;28;20034;-81
2021/05/05 01:17:56;;;;;;;2.20;0.82;;;;;;;;;;5017294;28;20044;-81
2021/05/05 01:20:27;;;;;;;1.38;0.98;;;13.90;48.40;;;;;;5023681;28;20029;-82
2021/05/05 01:22:53;;;;;;;0.88;0.70;;;;;;;;;;5028075;28;20121;-81
2021/05/05 01:25:19;;;;;;;1.15;0.70;;;;;;;;;;5028009;28;20108;-82
2021/05/05 01:27:46;;;;;;;0.82;0.70;;;;;;;;;;5015843;28;20501;-82
2021/05/05 01:30:15;;;;;;;0.65;0.63;;;13.70;48.90;;;;;;5045592;28;20091;-81
2021/05/05 01:32:41;;;;;;;1.20;0.77;;;;;;;;;;5031778;28;20537;-80
2021/05/05 01:35:09;;;;;;;1.00;0.73;;;13.80;49.00;;;;;;5032044;28;20108;-81
2021/05/05 01:37:35;;;;;;;;;;;14.00;48.90;;;;;;5032063;28;20029;-81
2021/05/05 01:40:01;;;;;;;0.98;0.70;;;;;;;;;;5030384;28;19909;-81
2021/05/05 01:42:27;;;;;;;1.52;0.47;;;;;;;;;;5028484;28;20033;-81
2021/05/05 01:44:53;;;;;;;1.48;0.82;;;;;;;;;;5031365;28;20033;-80
2021/05/05 01:47:19;;;;;;;1.10;0.82;;;;;;;;;;5029635;28;20032;-81
2021/05/05 01:49:47;;;;;;;0.85;0.68;;;14.50;48.60;;;;;;5031584;28;20013;-81
2021/05/05 01:52:15;;;;;;;0.73;0.40;;;14.50;48.80;;;;;;5046923;28;20072;-81
2021/05/05 01:54:41;;;;;;;1.13;0.60;;;;;;;;;;5031439;28;20045;-80
2021/05/05 01:57:28;;;;;;;0.30;0.30;;;14.40;48.00;;;;;;5032529;28;20662;-81
2021/05/05 01:59:54;;;;;;;0.75;0.50;;;;;;;;;;5020450;28;20038;-80
2021/05/05 02:02:20;;;;;;;8.98;0.77;;;;;;;;;;5026642;28;20087;-82
2021/05/05 02:04:46;;;;;;;1.70;1.60;;;;;;;;;;5029510;28;20021;-80
2021/05/05 02:07:12;;;;;;;0.50;0.50;;;;;;;;;;5017390;28;20476;-81
2021/05/05 02:09:38;;;;;;;0.75;0.50;;;;;;;;;;5015476;28;20044;-81
2021/05/05 02:12:04;;;;;;;0.38;0.38;;;;;;;;;;5032066;28;20021;-80
2021/05/05 02:14:30;;;;;;;0.70;0.70;;;;;;;;;;5031021;28;20064;-80
2021/05/05 02:17:00;;;;;;;0.82;0.40;;;14.50;47.00;;;;;;5027818;28;20072;-81
2021/05/05 02:19:26;;;;;;;0.32;0.32;;;;;;;;;;5019024;28;20524;-82
2021/05/05 02:21:52;;;;;;;1.63;1.00;;;;;;;;;;5045708;28;20029;-80
2021/05/05 02:24:18;;;;;;;0.90;0.60;;;;;;;;;;5031996;28;20505;-81
2021/05/05 02:26:44;;;;;;;0.60;0.55;;;;;;;;;;5020802;28;20076;-80
2021/05/05 02:29:10;;;;;;;3.90;0.60;;;;;;;;;;5024922;28;20533;-81
2021/05/05 02:31:36;;;;;;;2.25;0.55;;;;;;;;;;5030737;28;20096;-81
2021/05/05 02:34:03;;;;;;;4.68;0.70;;;;;;;;;;5030755;28;20116;-81
2021/05/05 02:36:30;;;;;;;1.00;0.90;;;14.40;46.60;;;;;;5025320;28;20021;-80
2021/05/05 02:38:57;;;;;;;1.10;1.00;;;14.30;46.00;;;;;;5030726;28;20498;-81
2021/05/05 02:41:24;;;;;;;0.90;0.70;;;;;;;;;;5023576;28;20026;-80
2021/05/05 02:43:50;;;;;;;0.98;0.73;;;;;;;;;;5019224;28;20037;-80
2021/05/05 02:46:16;;;;;;;1.20;1.13;;;;;;;;;;5017047;28;20112;-80
2021/05/05 02:48:42;;;;;;;3.75;0.70;;;;;;;;;;5030657;28;20052;-80
2021/05/05 02:51:08;;;;;;;4.95;0.93;;;;;;;;;;5031559;28;20557;-81
2021/05/05 02:53:34;;;;;;;1.30;0.70;;;;;;;;;;5030223;28;20120;-80
2021/05/05 02:56:00;;;;;;;1.13;0.90;;;;;;;;;;5030316;28;20256;-81
2021/05/05 02:58:26;;;;;;;1.08;0.57;;;;;;;;;;5030511;28;20069;-81
2021/05/05 03:00:52;;;;;;;1.02;0.93;;;;;;;;;;5030354;28;20053;-81
2021/05/05 03:03:18;;;;;;;2.65;0.73;;;;;;;;;;5017272;28;20545;-81
2021/05/05 03:05:44;;;;;;;2.28;0.88;;;;;;;;;;5028807;28;20107;-80
2021/05/05 03:08:10;;;;;;;1.42;0.63;;;;;;;;;;5025044;28;20109;-80
2021/05/05 03:10:36;;;;;;;0.60;0.57;;;;;;;;;;5019153;28;20025;-81
2021/05/05 03:13:02;;;;;;;0.75;0.73;;;;;;;;;;5030181;28;20045;-81
2021/05/05 03:15:28;;;;;;;0.98;0.80;;;;;;;;;;5034065;28;20436;-80
2021/05/05 03:17:54;;;;;;;0.50;0.50;;;;;;;;;;5029900;28;20045;-80
2021/05/05 03:20:20;;;;;;;1.13;0.60;;;;;;;;;;5029910;28;20048;-80
2021/05/05 03:22:46;;;;;;;3.53;0.80;;;;;;;;;;5027700;28;20805;-82
2021/05/05 03:25:13;;;;;;;1.10;0.77;;;;;;;;;;5016409;28;20025;-81
2021/05/05 03:27:39;;;;;;;1.63;0.50;;;;;;;;;;5031411;28;20033;-80
2021/05/05 03:30:06;;;;;;;0.30;0.30;;;13.60;58.40;;;;;;5017380;28;20100;-80
2021/05/05 03:32:32;;;;;;;0.30;0.30;;;;;;;;;;5026498;28;20033;-81
2021/05/05 03:34:58;;;;;;;0.30;0.30;;;;;;;;;;5026580;28;20026;-81
2021/05/05 03:37:24;;;;;;;0.63;0.30;;;;;;;;;;5017081;28;20550;-80
2021/05/05 03:39:50;;;;;;;0.60;0.60;;;;;;;;;;5029854;28;20056;-81
2021/05/05 03:42:16;;;;;;;0.20;0.20;;;;;;;;;;5030634;28;20104;-81
2021/05/05 03:44:43;;;;;;;0.30;0.30;;;;;;;;;;5029130;28;20600;-80
2021/05/05 03:47:09;;;;;;;0.22;0.22;;;;;;;;;;5029299;28;20029;-80
2021/05/05 03:49:35;;;;;;;0.80;0.35;;;;;;;;;;5028317;28;20635;-81
2021/05/05 03:52:01;;;;;;;0.20;0.20;;;;;;;;;;5029719;28;20033;-81
2021/05/05 03:54:27;;;;;;;0.20;0.20;;;;;;;;;;5018006;28;20025;-81
2021/05/05 03:56:53;;;;;;;0.30;0.30;;;;;;;;;;5028992;28;20515;-80
2021/05/05 03:59:19;;;;;;;0.30;0.30;;;;;;;;;;5029192;28;20108;-80
2021/05/05 04:01:45;;;;;;;0.57;0.47;;;;;;;;;;5029152;28;20021;-80
2021/05/05 04:04:10;;;;;;;1.05;0.40;;;;;;;;;;5029090;28;20033;-80
2021/05/05 04:06:36;;;;;;;0.30;0.30;;;;;;;;;;5029381;28;20135;-82
2021/05/05 04:09:03;;;;;;;1.27;1.23;;;;;;;;;;5029696;28;20445;-81
2021/05/05 04:11:29;;;;;;;1.38;0.50;;;;;;;;;;5028927;28;20025;-80
2021/05/05 04:13:55;;;;;;;0.32;0.32;;;;;;;;;;5028736;28;20022;-80
2021/05/05 04:16:21;;;;;;;6.45;0.60;;;;;;;;;;5029061;28;20052;-80
2021/05/05 04:18:47;;;;;;;0.30;0.30;;;;;;;;;;5028400;28;20036;-81
2021/05/05 04:21:13;;;;;;;0.60;0.50;;;;;;;;;;5029874;28;20060;-80
2021/05/05 04:23:39;;;;;;;0.35;0.35;;;;;;;;;;5028583;28;20021;-80
2021/05/05 04:26:05;;;;;;;6.07;1.10;;;12.70;55.30;;;;;;5028587;28;20530;-80
2021/05/05 04:28:31;;;;;;;0.93;0.50;;;12.70;55.50;;;;;;5028568;28;20052;-80
2021/05/05 04:30:58;;;;;;;0.82;0.52;;;;;;;;;;5012610;28;20025;-80
2021/05/05 04:33:24;;;;;;;0.60;0.40;;;;;;;;;;5029591;28;20028;-80
2021/05/05 04:35:50;;;;;;;0.40;0.40;;;;;;;;;;5028676;28;20538;-80
2021/05/05 04:38:16;;;;;;;0.52;0.52;;;;;;;;;;5028300;28;20021;-80
2021/05/05 04:40:42;;;;;;;1.08;0.80;;;;;;;;;;5028533;28;20033;-80
2021/05/05 04:43:08;;;;;;;0.55;0.55;;;;;;;;;;5028590;28;20030;-80
2021/05/05 04:45:34;;;;;;;3.53;0.65;;;;;;;;;;5027158;28;20049;-81
2021/05/05 04:48:00;;;;;;;0.63;0.60;;;;;;;;;;5016898;28;20034;-82
2021/05/05 04:50:27;;;;;;;1.20;0.63;;;;;;;;;;5024248;28;20029;-81
2021/05/05 04:52:53;;;;;;;5.93;0.60;;;;;;;;;;5028426;28;20030;-80
2021/05/05 04:55:20;;;;;;;0.95;0.60;;;;;;;;;;5028354;28;20022;-80
2021/05/05 04:57:46;;;;;;;0.32;0.32;;;11.90;52.80;;;;;;5028412;28;20029;-80
2021/05/05 05:00:12;;;;;;;0.60;0.60;;;;;;;;;;5024720;28;20040;-80
2021/05/05 05:02:38;;;;;;;1.48;0.52;;;;;;;;;;5028880;28;20021;-81
2021/05/05 05:05:05;;;;;;;1.73;0.60;;;;;;;;;;5030122;28;20030;-81
2021/05/05 05:07:31;;;;;;;0.50;0.50;;;;;;;;;;5027659;28;20025;-80
2021/05/05 05:09:58;;;;;;;0.75;0.73;;;11.90;50.30;;;;;;5027937;28;20032;-81
2021/05/05 05:12:24;;;;;;;0.80;0.77;;;;;;;;;;5033352;28;20039;-81
2021/05/05 05:14:50;;;;;;;0.77;0.60;;;;;;;;;;5030613;28;20116;-81
2021/05/05 05:17:16;;;;;;;1.50;0.60;;;;;;;;;;5041814;28;20056;-81
2021/05/05 05:19:42;;;;;;;0.65;0.50;;;;;;;;;;5030046;28;20049;-81
2021/05/05 05:22:08;;;;;;;2.10;0.70;;;12.00;54.00;;;;;;5030429;28;20041;-83
2021/05/05 05:24:37;;;;;;;0.50;0.50;;;;;;;;;;5031645;28;20747;-87
2021/05/05 05:27:03;;;;;;;0.73;0.40;;;;;;;;;;5033069;28;20032;-86
2021/05/05 05:29:29;;;;;;;2.85;0.57;;;;;;;;;;5032180;28;20127;-84
2021/05/05 05:31:55;;;;;;;0.52;0.43;;;;;;;;;;5029268;28;20033;-85
2021/05/05 05:34:21;;;;;;;3.22;1.20;;;;;;;;;;5030593;28;20041;-86
2021/05/05 05:36:47;;;;;;;0.60;0.60;;;;;;;;;;5030295;28;20446;-86
2021/05/05 05:39:13;;;;;;;1.90;0.73;;;;;;;;;;5032073;28;20045;-81
2021/05/05 05:41:39;;;;;;;2.75;1.40;;;;;;;;;;5026729;28;20096;-80
2021/05/05 05:44:05;;;;;;;3.28;1.85;;;;;;;;;;5032618;28;20072;-80
2021/05/05 05:46:32;;;;;;;1.55;0.88;;;;;;;;;;5031791;28;20053;-81
2021/05/05 05:48:58;;;;;;;7.13;0.90;;;;;;;;;;5027631;28;20502;-82
2021/05/05 05:51:24;;;;;;;0.75;0.75;;;;;;;;;;5030628;28;20405;-81
2021/05/05 05:53:50;;;;;;;5.32;1.25;;;;;;;;;;5025972;28;20025;-80
2021/05/05 05:56:16;;;;;;;1.95;0.68;;;;;;;;;;5029298;28;20112;-81
2021/05/05 05:58:42;;;;;;;1.08;0.90;;;;;;;;;;5033068;28;20037;-81
2021/05/05 06:01:08;;;;;;;0.85;0.80;;;;;;;;;;5033054;28;20509;-80
2021/05/05 06:03:34;;;;;;;0.65;0.50;;;;;;;;;;5018091;28;20022;-81
2021/05/05 06:06:00;;;;;;;0.80;0.70;;;;;;;;;;5022026;28;20380;-82
2021/05/05 06:08:26;;;;;;;0.40;0.40;;;;;;;;;;5029277;28;20022;-81
2021/05/05 06:10:52;;;;;;;1.02;0.80;;;;;;;;;;5031208;28;20537;-81
2021/05/05 06:13:18;;;;;;;3.88;0.60;;;;;;;;;;5029440;28;20476;-81
2021/05/05 06:15:46;;;;;;;0.75;0.65;;;;;;;;;;5014387;28;20109;-82
2021/05/05 06:18:12;;;;;;;1.35;0.63;;;;;;;;;;5015645;28;20030;-82
2021/05/05 06:20:38;;;;;;;1.33;0.60;;;;;;;;;;5027628;28;20030;-85
2021/05/05 06:23:04;;;;;;;1.20;0.60;;;;;;;;;;5030542;28;20021;-81
2021/05/05 06:25:30;;;;;;;9.88;1.05;;;;;;;;;;5028999;28;20155;-81
2021/05/05 06:27:56;;;;;;;1.17;0.70;;;;;;;;;;5012905;28;20025;-83
2021/05/05 06:30:23;;;;;;;0.63;0.60;;;;;;;;;;5030763;28;20058;-81
2021/05/05 06:32:49;;;;;;;0.80;0.50;;;;;;;;;;5019501;28;20037;-81
2021/05/05 06:35:16;;;;;;;2.05;0.50;;;12.90;42.70;;;;;;5024557;28;20056;-81
2021/05/05 06:37:42;;;;;;;0.43;0.43;;;;;;;;;;5026288;28;20087;-83
2021/05/05 06:40:09;;;;;;;2.63;0.70;;;;;;;;;;5043395;28;20038;-82
2021/05/05 06:42:35;;;;;;;3.03;1.50;;;;;;;;;;5014377;28;20022;-82
2021/05/05 06:45:01;;;;;;;0.40;0.40;;;;;;;;;;5019289;28;20410;-81
2021/05/05 06:47:28;;;;;;;4.60;0.43;;;;;;;;;;5029705;28;20029;-82
2021/05/05 06:49:54;;;;;;;1.27;0.52;;;;;;;;;;5024303;28;20021;-81
2021/05/05 06:52:20;;;;;;;0.52;0.40;;;;;;;;;;5028465;28;20033;-82
2021/05/05 06:54:46;;;;;;;0.40;0.40;;;;;;;;;;5023277;28;20079;-82
2021/05/05 06:57:12;;;;;;;0.93;0.80;;;;;;;;;;5017417;28;20041;-82
2021/05/05 06:59:37;;;;;;;1.52;0.80;;;;;;;;;;5017446;28;20069;-81
2021/05/05 07:02:04;;;;;;;0.65;0.60;;;;;;;;;;5021562;28;20548;-81
2021/05/05 07:04:30;;;;;;;0.75;0.52;;;;;;;;;;5029561;28;20021;-82
2021/05/05 07:06:56;;;;;;;0.85;0.55;;;;;;;;;;5029261;28;20034;-83
2021/05/05 07:09:22;;;;;;;0.85;0.45;;;;;;;;;;5030504;28;20026;-81
2021/05/05 07:11:48;;;;;;;0.88;0.82;;;;;;;;;;5019382;28;20025;-82
2021/05/05 07:14:14;;;;;;;0.75;0.50;;;;;;;;;;5017657;28;20076;-82
2021/05/05 07:16:40;;;;;;;0.50;0.40;;;;;;;;;;5018525;28;20053;-81
2021/05/05 07:19:06;;;;;;;5.57;1.52;;;;;;;;;;5028861;28;20623;-81
2021/05/05 07:21:32;;;;;;;0.73;0.40;;;;;;;;;;5014276;28;20034;-82
2021/05/05 07:23:59;;;;;;;0.77;0.73;;;;;;;;;;5016824;28;20032;-85
2021/05/05 07:26:25;;;;;;;4.22;0.88;;;;;;;;;;5027673;28;20041;-89
2021/05/05 07:28:51;;;;;;;0.40;0.40;;;;;;;;;;5030790;28;20045;-90
2021/05/05 07:31:18;;;;;;;0.60;0.45;;;;;;;;;;5026840;28;20037;-82
2021/05/05 07:33:45;;;;;;;2.38;0.65;;;;;;;;;;5026568;28;20025;-82
2021/05/05 07:36:16;;;;;;;0.90;0.60;;;;;;;;;;5027397;28;20032;-82
2021/05/05 07:47:14;;;;;;;7.03;3.13;;;;;;;;;;4989297;28;20439;-89
2021/05/05 07:49:47;;;;;;;1.40;0.75;;;;;;;;;;4975059;28;20053;-91
2021/05/05 07:52:13;;;;;;;1.05;0.52;;;;;;;;;;4986619;28;20137;-83
2021/05/05 07:54:39;;;;;;;4.95;2.40;;;;;;;;;;4974283;28;20026;-89
2021/05/05 07:57:06;;;;;;;7.55;0.95;;;;;;;;;;4990857;28;20046;-88
2021/05/05 07:59:32;;;;;;;4.47;1.02;;;;;;;;;;4990459;28;20062;-89
2021/05/05 08:01:58;;;;;;;8.68;0.95;;;;;;;;;;4990976;28;20038;-90
2021/05/05 08:04:24;;;;;;;4.10;0.85;;;;;;;;;;4968566;28;20039;-90
2021/05/05 08:06:50;;;;;;;3.13;0.75;;;;;;;;;;4971510;28;20595;-82
2021/05/05 08:09:16;;;;;;;1.30;1.10;;;;;;;;;;4987856;28;20045;-91
2021/05/05 08:11:42;;;;;;;3.10;1.10;;;;;;;;;;4974137;28;20034;-92
2021/05/05 08:14:08;;;;;;;4.10;1.95;;;;;;;;;;4990610;28;20026;-90
2021/05/05 08:16:34;;;;;;;1.05;0.80;;;;;;;;;;4999072;28;20033;-88
2021/05/05 08:19:00;;;;;;;1.48;1.30;;;;;;;;;;5030346;28;20041;-88
2021/05/05 08:21:28;;;;;;;12.40;1.60;;;;;;;;;;5030939;28;20022;-91
2021/05/05 08:23:55;;;;;;;;;;;12.90;48.30;;;;;;5032120;28;20029;-87
2021/05/05 08:26:21;;;;;;;4.47;1.13;;;;;;;;;;5022175;28;19916;-84
2021/05/05 08:28:47;;;;;;;4.78;0.70;;;;;;;;;;5030559;28;20040;-90
2021/05/05 08:31:13;;;;;;;7.95;1.13;;;;;;;;;;5030269;28;20559;-89
2021/05/05 08:33:39;;;;;;;3.22;0.85;;;;;;;;;;5030492;28;20018;-91
2021/05/05 08:36:08;;;;;;;3.90;1.33;;;;;;;;;;5029063;28;20033;-88
2021/05/05 08:38:34;;;;;;;5.25;0.90;;;;;;;;;;5024122;28;20042;-88
2021/05/05 08:41:00;;;;;;;2.60;1.00;;;;;;;;;;5028231;28;20036;-89
2021/05/05 08:43:26;;;;;;;2.00;1.13;;;;;;;;;;5039614;28;20124;-89
2021/05/05 08:45:58;;;;;;;0.77;0.77;;;12.10;49.40;;;;;;5028488;28;20774;-89
2021/05/05 08:48:24;;;;;;;0.88;0.80;;;;;;;;;;5030767;28;20101;-88
2021/05/05 08:50:50;;;;;;;1.02;0.68;;;;;;;;;;5028858;28;20038;-82
2021/05/05 08:53:16;;;;;;;2.55;0.80;;;;;;;;;;5026581;28;20053;-81
2021/05/05 08:55:42;;;;;;;1.25;0.88;;;;;;;;;;5024013;28;20072;-80
2021/05/05 08:58:08;;;;;;;8.55;0.95;;;;;;;;;;5025234;28;20102;-81
2021/05/05 09:00:36;;;;;;;2.15;1.00;;;;;;;;;;5024736;28;20045;-81
2021/05/05 09:03:04;;;;;;;1.63;1.10;;;;;;;;;;5040178;28;20041;-82
2021/05/05 09:05:46;;;;;;;0.88;0.73;;;13.50;44.40;;;;;;5027382;28;20079;-81
2021/05/05 09:08:12;;;;;;;5.20;1.63;;;;;;;;;;5025672;28;20418;-81
2021/05/05 09:10:51;;;;;;;1.42;0.60;;;14.30;44.60;;;;;;5026836;28;20029;-81
2021/05/05 09:13:22;;;;;;;4.15;0.93;;;;;;;;;;5026946;28;20032;-80
2021/05/05 09:16:05;;;;;;;2.22;0.88;;;;;;;;;;5027576;28;20037;-81
2021/05/05 09:18:50;;;;;;;2.03;0.70;;;14.90;41.10;;;;;;5028672;28;20079;-81
2021/05/05 09:21:23;;;;;;;2.00;1.10;;;14.80;41.70;;;;;;5012623;28;20124;-81
2021/05/05 09:23:49;;;;;;;7.18;0.63;;;;;;;;;;5015677;28;20018;-81
2021/05/05 09:26:35;;;;;;;2.67;1.08;;;14.80;42.40;;;;;;5021026;28;20025;-82
2021/05/05 09:29:01;;;;;;;2.25;1.10;;;;;;;;;;5025072;28;20107;-81
2021/05/05 09:31:37;;;;;;;1.33;1.08;;;;;;;;;;5026886;28;20569;-81
2021/05/05 09:34:04;;;;;;;4.22;0.90;;;14.70;41.20;;;;;;5011584;28;20498;-81
2021/05/05 09:36:30;;;;;;;1.90;1.00;;;;;;;;;;5023294;28;20112;-82
2021/05/05 09:38:56;;;;;;;7.13;1.50;;;;;;;;;;5028950;28;20292;-91
2021/05/05 09:41:30;;;;;;;2.45;1.35;;;14.80;41.10;;;;;;5027443;28;20037;-87
2021/05/05 09:44:03;;;;;;;1.13;0.80;;;;;;;;;;5031207;28;20058;-85
2021/05/05 09:46:41;;;;;;;3.38;0.85;;;15.20;42.10;;;;;;5039250;28;20096;-81
2021/05/05 09:49:34;;;;;;;2.90;1.10;;;15.20;40.10;;;;;;5030747;28;20033;-81
2021/05/05 09:52:15;;;;;;;5.45;1.83;;;15.10;39.20;;;;;;5015987;28;20104;-82
2021/05/05 09:54:55;;;;;;;0.95;0.65;;;15.10;40.20;;;;;;5011621;28;20033;-82
2021/05/05 09:57:22;;;;;;;1.75;0.85;;;;;;;;;;5041653;28;20034;-81
2021/05/05 09:59:58;;;;;;;;;;;15.00;38.80;;;;;;5030508;28;20087;-81
2021/05/05 10:02:24;;;;;;;0.60;0.60;;;;;;;;;;5030240;28;20382;-81
2021/05/05 10:05:00;;;;;;;1.80;0.90;;;14.80;59.50;;;;;;5024398;28;20088;-81
2021/05/05 10:07:27;;;;;;;1.42;0.75;;;;;;;;;;5019659;28;20199;-81
2021/05/05 10:09:53;;;;;;;2.33;1.00;;;;;;;;;;5014206;28;20033;-81
2021/05/05 10:12:21;;;;;;;0.60;0.60;;;15.00;36.90;;;;;;5031188;28;20140;-82
2021/05/05 10:14:50;;;;;;;3.17;0.80;;;15.30;38.10;;;;;;5019433;28;20030;-81
2021/05/05 10:17:16;;;;;;;1.65;0.90;;;15.70;35.90;;;;;;5023148;28;20033;-82
2021/05/05 10:19:44;;;;;;;3.87;0.67;;;;;;;;;;5029063;28;20033;-81
2021/05/05 10:22:11;;;;;;;1.25;0.80;;;;;;;;;;5015036;28;20029;-81
2021/05/05 10:24:45;;;;;;;3.65;0.85;;;18.40;31.90;;;;;;5014841;28;20042;-81
2021/05/05 10:27:12;;;;;;;8.43;1.55;;;19.20;30.30;;;;;;5029742;28;20045;-82
2021/05/05 10:29:39;;;;;;;;;;;19.70;30.20;;;;;;5025918;28;20713;-81
2021/05/05 10:32:08;;;;;;;1.50;0.82;;;;;;;;;;5027298;28;19916;-81
2021/05/05 10:34:36;;;;;;;3.53;0.93;;;;;;;;;;5026751;28;20033;-82
2021/05/05 10:37:04;;;;;;;1.83;0.57;;;18.80;30.40;;;;;;5028592;28;20128;-82
2021/05/05 10:39:37;;;;;;;2.17;0.82;;;19.00;32.60;;;;;;5026129;28;20042;-81
2021/05/05 10:42:19;;;;;;;2.85;0.55;;;18.60;30.40;;;;;;5025194;28;20037;-81
2021/05/05 10:44:45;;;;;;;1.50;0.57;;;;;;;;;;5025015;28;20502;-80
2021/05/05 10:47:19;;;;;;;3.67;2.55;;;19.40;51.70;;;;;;5021358;28;20038;-81
2021/05/05 10:50:08;;;;;;;0.82;0.68;;;18.70;31.50;;;;;;5027655;28;20051;-81
2021/05/05 10:52:35;;;;;;;1.65;0.60;;;;;;;;;;5027113;28;20022;-89
2021/05/05 10:55:02;;;;;;;3.92;0.63;;;;;;;;;;5025964;28;20057;-89
2021/05/05 10:57:28;;;;;;;2.85;0.70;;;;;;;;;;5029218;28;20029;-82
2021/05/05 10:59:57;;;;;;;3.53;0.93;;;;;;;;;;5025465;28;20044;-82
2021/05/05 11:02:44;;;;;;;1.23;0.70;;;17.00;29.20;;;;;;5026029;28;20040;-81
2021/05/05 11:05:12;;;;;;;1.08;0.73;;;17.10;30.00;;;;;;5026166;28;20033;-82
2021/05/05 11:07:47;;;;;;;6.30;0.93;;;17.00;29.00;;;;;;5026384;28;20068;-82
2021/05/05 11:10:36;;;;;;;0.90;0.88;;;17.30;29.30;;;;;;5026248;28;20030;-86
2021/05/05 11:13:11;;;;;;;3.92;0.85;;;;;;;;;;5030630;28;20028;-87
2021/05/05 11:15:43;;;;;;;6.65;2.60;;;19.40;33.40;;;;;;5027790;28;20088;-81
2021/05/05 11:18:28;;;;;;;0.50;0.50;;;;;;;;;;5026932;28;20037;-82
2021/05/05 11:21:01;;;;;;;1.83;1.00;;;17.90;29.90;;;;;;5037993;28;20045;-81
2021/05/05 11:23:38;;;;;;;4.90;0.77;;;;;;;;;;5020050;28;20026;-81
2021/05/05 11:26:30;;;;;;;1.73;0.90;;;18.10;28.50;;;;;;5025691;28;20026;-82
2021/05/05 11:28:56;;;;;;;0.80;0.55;;;;;;;;;;5024754;28;20068;-83
2021/05/05 11:31:47;;;;;;;3.45;0.63;;;17.40;28.20;;;;;;5025129;28;20048;-82
2021/05/05 11:34:26;;;;;;;2.47;1.05;;;17.00;46.90;;;;;;5024593;28;20029;-82
2021/05/05 11:37:00;;;;;;;0.60;0.60;;;;;;;;;;5016983;28;20104;-82
2021/05/05 11:39:33;;;;;;;1.83;1.00;;;16.90;29.00;;;;;;5025327;28;20037;-84
2021/05/05 11:42:20;;;;;;;2.35;0.57;;;16.80;27.60;;;;;;5024307;28;20104;-81
2021/05/05 11:44:54;;;;;;;2.75;1.95;;;16.80;29.10;;;;;;5022643;28;20061;-82
2021/05/05 11:47:33;;;;;;;5.93;0.65;;;17.10;27.30;;;;;;5022789;28;20040;-82
2021/05/05 11:50:14;;;;;;;5.90;1.08;;;17.10;27.30;;;;;;5023359;28;20029;-87
2021/05/05 11:52:47;;;;;;;1.65;1.15;;;17.20;26.20;;;;;;5022977;28;20017;-81
2021/05/05 11:55:16;;;;;;;2.30;1.05;;;;;;;;;;5028490;28;20052;-82
2021/05/05 11:57:48;;;;;;;1.20;0.77;;;17.40;27.60;;;;;;5027633;28;20033;-81
2021/05/05 12:00:21;;;;;;;0.50;0.50;;;17.40;25.70;;;;;;5023320;28;20041;-82
2021/05/05 12:02:50;;;;;;;4.13;0.98;;;;;;;;;;5027877;28;20104;-81
2021/05/05 12:05:28;;;;;;;1.60;0.52;;;17.50;47.20;;;;;;5023517;28;20052;-82
2021/05/05 12:08:12;;;;;;;1.65;1.00;;;17.50;38.90;;;;;;5026084;28;20038;-81
2021/05/05 12:10:40;;;;;;;2.50;0.55;;;17.70;41.10;;;;;;5027843;28;20022;-80
2021/05/05 12:13:07;;;;;;;2.47;0.60;;;17.40;25.30;;;;;;5017689;28;20029;-82
2021/05/05 12:15:35;;;;;;;0.75;0.63;;;;;;;;;;5030281;28;20096;-80
2021/05/05 12:18:06;;;;;;;5.57;0.75;;;;;;;;;;5020922;28;20041;-81
2021/05/05 12:20:32;;;;;;;0.63;0.63;;;;;;;;;;5021239;28;20033;-82
2021/05/05 12:23:00;;;;;;;1.38;0.70;;;17.40;26.90;;;;;;5019612;28;20791;-80
2021/05/05 12:25:31;;;;;;;2.20;1.00;;;;;;;;;;5025420;28;20021;-81
2021/05/05 12:28:05;;;;;;;1.10;0.77;;;;;;;;;;5027945;28;20040;-90
2021/05/05 12:30:40;;;;;;;2.20;0.60;;;;;;;;;;5027188;28;20107;-81
2021/05/05 12:33:06;;;;;;;1.50;1.40;;;;;;;;;;5024975;28;20490;-81
2021/05/05 12:35:34;;;;;;;0.70;0.55;;;17.20;28.60;;;;;;5025671;28;20030;-81
2021/05/05 12:38:04;;;;;;;2.42;2.15;;;;;;;;;;5024411;28;20022;-81
2021/05/05 12:40:30;;;;;;;1.00;0.50;;;;;;;;;;5027260;28;20033;-81
2021/05/05 12:43:09;;;;;;;0.95;0.57;;;;;;;;;;5011456;28;20037;-89
2021/05/05 12:45:35;;;;;;;0.65;0.50;;;;;;;;;;5012346;28;20100;-91
2021/05/05 12:48:05;;;;;;;0.50;0.50;;;;;;;;;;5010591;28;20113;-91
2021/05/05 12:50:38;;;;;;;0.93;0.52;;;;;;;;;;5018825;28;20029;-84
2021/05/05 12:53:05;;;;;;;4.72;1.00;;;;;;;;;;5024035;28;20450;-82
2021/05/05 12:55:33;;;;;;;0.55;0.40;;;17.60;28.80;;;;;;5021276;28;20034;-82
2021/05/05 12:58:04;;;;;;;0.38;0.38;;;;;;;;;;5022665;28;20137;-87
2021/05/05 13:00:30;;;;;;;0.82;0.60;;;;;;;;;;5027026;28;20045;-93
2021/05/05 13:03:04;;;;;;;0.75;0.60;;;;;;;;;;5048555;28;20029;-91
2021/05/05 13:05:30;;;;;;;2.17;0.60;;;;;;;;;;5031827;28;20037;-88
2021/05/05 13:08:10;;;;;;;1.73;0.80;;;;;;;;;;5038826;28;20112;-91
2021/05/05 13:10:44;;;;;;;4.63;0.60;;;;;;;;;;5022879;28;20026;-93
2021/05/05 13:13:15;;;;;;;2.78;0.50;;;;;;;;;;5017615;28;20087;-95
2021/05/05 13:25:41;;;;;;;6.03;0.93;;;;;;;;;;5013633;28;20132;-83
2021/05/05 13:29:42;;;;;;;2.20;0.85;;;;;;;;;;4966458;28;20045;-83
2021/05/05 13:32:31;;;;;;;2.55;0.60;;;17.80;27.60;;;;;;4967232;28;20100;-83
2021/05/05 13:34:57;;;;;;;0.57;0.57;;;;;;;;;;4966153;28;20101;-83
2021/05/05 13:37:23;;;;;;;1.85;1.50;;;;;;;;;;4967855;28;20027;-83
2021/05/05 13:39:50;;;;;;;7.20;0.80;;;17.20;27.20;;;;;;4968033;28;20043;-83
2021/05/05 13:42:16;;;;;;;;;;;17.20;27.80;;;;;;4953415;28;20043;-82
2021/05/05 13:44:52;;;;;;;1.35;0.47;;;;;;;;;;4967215;28;19918;-89
2021/05/05 13:47:21;;;;;;;2.22;0.77;;;;;;;;;;4952277;28;20038;-92
2021/05/05 13:49:48;;;;;;;0.68;0.43;;;;;;;;;;4971028;28;20058;-84
2021/05/05 13:52:15;;;;;;;6.25;0.70;;;;;;;;;;4968604;28;20038;-84
2021/05/05 13:54:41;;;;;;;0.70;0.60;;;;;;;;;;4969005;28;20027;-83
2021/05/05 13:57:07;;;;;;;1.83;0.77;;;;;;;;;;4948993;28;20065;-90
2021/05/05 13:59:37;;;;;;;5.22;0.95;;;;;;;;;;4973259;28;20051;-89
2021/05/05 14:02:06;;;;;;;2.88;0.73;;;;;;;;;;4971923;28;20042;-92
2021/05/05 14:04:33;;;;;;;4.05;0.75;;;;;;;;;;4964889;28;20527;-92
2021/05/05 14:06:59;;;;;;;1.25;0.80;;;;;;;;;;5007320;28;20029;-90
2021/05/05 14:09:26;;;;;;;0.97;0.70;;;;;;;;;;5034579;28;20532;-92
2021/05/05 14:11:52;;;;;;;1.55;0.68;;;;;;;;;;5034542;28;20368;-89
2021/05/05 14:14:19;;;;;;;3.95;0.60;;;;;;;;;;5022674;28;20121;-85
2021/05/05 14:16:46;;;;;;;5.57;1.00;;;;;;;;;;5016206;28;20040;-83
2021/05/05 14:19:12;;;;;;;0.80;0.40;;;;;;;;;;5026358;28;20599;-83
2021/05/05 14:21:38;;;;;;;2.53;0.75;;;;;;;;;;5028318;28;20112;-84
2021/05/05 14:24:06;;;;;;;1.23;0.60;;;17.30;25.00;;;;;;5016477;28;20443;-83
2021/05/05 14:26:32;;;;;;;2.47;0.63;;;;;;;;;;5019850;28;20026;-83
2021/05/05 14:28:58;;;;;;;4.00;0.90;;;;;;;;;;5023005;28;20107;-84
2021/05/05 14:31:24;;;;;;;0.98;0.47;;;;;;;;;;5012799;28;20022;-84
2021/05/05 14:33:50;;;;;;;0.68;0.68;;;;;;;;;;5013192;28;20034;-82
2021/05/05 14:36:16;;;;;;;0.52;0.35;;;;;;;;;;5016281;28;20077;-83
2021/05/05 14:38:46;;;;;;;0.88;0.43;;;;;;;;;;5017356;28;20116;-84
2021/05/05 14:41:47;;;;;;;1.67;0.70;;;17.10;25.40;;;;;;5019598;28;20052;-87
2021/05/05 14:44:13;;;;;;;2.50;0.60;;;;;;;;;;5014666;28;20054;-89